createdAt,value
2019-04-16T00:02:09.719Z,16.15
2019-04-16T00:04:36.994Z,16.82
2019-04-16T00:07:04.280Z,17.40
2019-04-16T00:09:31.340Z,17.00
2019-04-16T00:11:58.719Z,16.07
2019-04-16T00:14:25.789Z,17.87
2019-04-16T00:16:53.119Z,16.45
2019-04-16T00:19:20.439Z,17.02
2019-04-16T00:21:47.488Z,17.75
2019-04-16T00:24:18.192Z,16.82
2019-04-16T00:26:43.611Z,16.97
2019-04-16T00:29:11.010Z,18.30
2019-04-16T00:31:38.306Z,17.20
2019-04-16T00:34:05.632Z,17.95
2019-04-16T00:36:32.723Z,18.32
2019-04-16T00:39:00.119Z,16.67
2019-04-16T00:41:27.577Z,16.45
2019-04-16T00:43:54.947Z,17.87
2019-04-16T00:46:22.286Z,16.93
2019-04-16T00:48:49.386Z,16.82
2019-04-16T00:51:16.444Z,16.35
2019-04-16T00:53:43.490Z,17.07
2019-04-16T00:56:13.415Z,16.77
2019-04-16T00:58:40.006Z,17.35
2019-04-16T01:01:07.065Z,18.07
2019-04-16T01:03:34.404Z,19.00
2019-04-16T01:06:01.478Z,17.27
2019-04-16T01:08:28.509Z,18.20
2019-04-16T01:10:55.563Z,17.50
2019-04-16T01:13:24.511Z,16.77
2019-04-16T01:15:52.107Z,16.95
2019-04-16T01:18:19.159Z,16.93
2019-04-16T01:20:46.508Z,16.87
2019-04-16T01:23:17.549Z,17.80
2019-04-16T01:25:42.937Z,18.37
2019-04-16T01:28:10.072Z,16.57
2019-04-16T01:30:37.245Z,17.60
2019-04-16T01:33:04.249Z,18.62
2019-04-16T01:35:31.306Z,17.02
2019-04-16T01:37:59.608Z,18.57
2019-04-16T01:40:26.674Z,18.67
2019-04-16T01:42:54.713Z,17.75
2019-04-16T01:45:22.596Z,17.00
2019-04-16T01:47:49.951Z,17.25
2019-04-16T01:50:17.304Z,18.15
2019-04-16T01:52:47.347Z,18.25
2019-04-16T01:55:25.483Z,17.10
2019-04-16T01:57:49.825Z,18.42
2019-04-16T02:00:16.868Z,17.80
2019-04-16T02:02:46.338Z,17.67
2019-04-16T02:05:12.906Z,18.77
2019-04-16T02:07:40.261Z,17.73
2019-04-16T02:10:08.075Z,18.02
2019-04-16T02:12:35.487Z,18.25
2019-04-16T02:15:02.840Z,17.52
2019-04-16T02:17:31.216Z,18.98
2019-04-16T02:19:58.495Z,18.85
2019-04-16T02:22:25.824Z,18.87
2019-04-16T02:24:53.138Z,17.37
2019-04-16T02:27:20.191Z,19.07
2019-04-16T02:29:47.481Z,17.40
2019-04-16T02:32:14.538Z,18.57
2019-04-16T02:34:41.841Z,18.67
2019-04-16T02:37:09.119Z,17.85
2019-04-16T02:39:47.751Z,17.80
2019-04-16T02:42:05.163Z,17.60
2019-04-16T02:44:32.449Z,16.35
2019-04-16T02:47:05.375Z,17.27
2019-04-16T02:49:28.247Z,18.52
2019-04-16T02:51:55.298Z,18.80
2019-04-16T02:54:22.587Z,18.50
2019-04-16T02:56:52.080Z,18.27
2019-04-16T02:59:18.630Z,18.10
2019-04-16T03:01:45.670Z,17.48
2019-04-16T03:04:12.969Z,17.85
2019-04-16T03:06:40.009Z,17.62
2019-04-16T03:09:09.187Z,16.50
2019-04-16T03:11:36.057Z,18.48
2019-04-16T03:14:03.351Z,18.50
2019-04-16T03:16:30.390Z,17.23
2019-04-16T03:18:57.683Z,17.32
2019-04-16T03:21:27.411Z,16.97
2019-04-16T03:23:53.735Z,16.45
2019-04-16T03:26:21.781Z,16.57
2019-04-16T03:28:48.844Z,17.25
2019-04-16T03:31:22.509Z,16.40
2019-04-16T03:33:50.231Z,17.42
2019-04-16T03:36:14.855Z,17.60
2019-04-16T03:38:42.258Z,16.82
2019-04-16T03:41:09.276Z,16.15
2019-04-16T03:43:36.328Z,16.07
2019-04-16T03:46:03.368Z,17.95
2019-04-16T03:48:30.729Z,16.30
2019-04-16T03:51:00.551Z,18.85
2019-04-16T03:53:26.893Z,16.23
2019-04-16T03:55:54.600Z,17.92
2019-04-16T03:58:23.340Z,17.92
2019-04-16T04:00:50.384Z,16.02
2019-04-16T04:03:17.743Z,15.90
2019-04-16T04:05:44.784Z,16.25
2019-04-16T04:08:16.099Z,16.85
2019-04-16T04:10:41.226Z,16.42
2019-04-16T04:13:08.287Z,15.78
2019-04-16T04:15:35.626Z,16.32
2019-04-16T04:18:02.670Z,15.60
2019-04-16T04:20:29.736Z,15.85
2019-04-16T04:22:57.856Z,16.12
2019-04-16T04:25:25.029Z,16.20
2019-04-16T04:27:52.409Z,16.12
2019-04-16T04:30:19.756Z,16.07
2019-04-16T04:32:47.721Z,16.50
2019-04-16T04:35:20.070Z,16.52
2019-04-16T04:37:43.994Z,16.02
2019-04-16T04:40:12.786Z,15.95
2019-04-16T04:42:40.088Z,16.37
2019-04-16T04:45:09.043Z,16.20
2019-04-16T04:47:36.186Z,16.60
2019-04-16T04:50:04.379Z,14.93
2019-04-16T04:52:31.439Z,15.48
2019-04-16T04:54:58.749Z,16.12
2019-04-16T04:57:28.385Z,16.37
2019-04-16T04:59:54.552Z,15.18
2019-04-16T05:02:21.947Z,15.10
2019-04-16T05:04:49.607Z,14.83
2019-04-16T05:07:18.022Z,15.18
2019-04-16T05:09:45.080Z,16.50
2019-04-16T05:12:12.122Z,16.00
2019-04-16T05:14:39.178Z,16.60
2019-04-16T05:17:07.606Z,15.50
2019-04-16T05:19:34.787Z,16.07
2019-04-16T05:22:02.205Z,16.20
2019-04-16T05:24:30.009Z,19.57
2019-04-16T05:26:57.323Z,17.12
2019-04-16T05:29:24.373Z,16.35
2019-04-16T05:31:51.516Z,17.87
2019-04-16T05:34:18.878Z,16.87
2019-04-16T05:36:47.858Z,16.37
2019-04-16T05:39:15.450Z,16.87
2019-04-16T05:41:42.787Z,17.15
2019-04-16T05:44:09.833Z,16.95
2019-04-16T05:46:38.334Z,17.50
2019-04-16T05:49:05.530Z,16.97
2019-04-16T05:51:32.853Z,17.62
2019-04-16T05:53:59.892Z,17.90
2019-04-16T05:56:27.248Z,16.93
2019-04-16T05:58:54.289Z,17.85
2019-04-16T06:01:22.680Z,18.27
2019-04-16T06:03:52.819Z,16.87
2019-04-16T06:06:18.788Z,17.87
2019-04-16T06:08:46.144Z,17.10
2019-04-16T06:11:27.667Z,17.77
2019-04-16T06:13:44.498Z,17.87
2019-04-16T06:16:11.372Z,19.05
2019-04-16T06:18:38.743Z,17.80
2019-04-16T06:21:06.043Z,18.90
2019-04-16T06:23:33.162Z,18.40
2019-04-16T06:26:00.481Z,18.15
2019-04-16T06:28:27.851Z,19.50
2019-04-16T06:30:55.215Z,18.70
2019-04-16T06:33:22.568Z,18.67
2019-04-16T06:35:49.920Z,18.57
2019-04-16T06:38:17.503Z,19.10
2019-04-16T06:40:44.906Z,18.82
2019-04-16T06:43:12.312Z,18.37
2019-04-16T06:45:39.403Z,18.37
2019-04-16T06:48:06.700Z,18.95
2019-04-16T06:50:39.658Z,18.57
2019-04-16T06:53:02.505Z,18.35
2019-04-16T06:55:29.550Z,18.95
2019-04-16T06:57:57.654Z,18.30
2019-04-16T07:00:26.036Z,19.45
2019-04-16T07:03:02.172Z,18.60
2019-04-16T07:05:22.228Z,18.35
2019-04-16T07:07:49.541Z,17.02
2019-04-16T07:10:16.585Z,17.82
2019-04-16T07:12:43.678Z,16.93
2019-04-16T07:15:11.010Z,17.92
2019-04-16T07:17:40.513Z,18.27
2019-04-16T07:20:06.880Z,17.95
2019-04-16T07:22:34.489Z,17.98
2019-04-16T07:25:04.582Z,18.55
2019-04-16T07:27:34.266Z,18.25
2019-04-16T07:30:05.162Z,17.65
2019-04-16T07:32:30.046Z,19.27
2019-04-16T07:34:57.104Z,18.75
2019-04-16T07:37:24.447Z,17.48
2019-04-16T07:39:51.800Z,18.67
2019-04-16T07:43:47.021Z,18.82
2019-04-16T07:44:47.876Z,19.27
2019-04-16T07:47:19.737Z,18.90
2019-04-16T07:49:44.195Z,19.50
2019-04-16T07:52:12.293Z,19.15
2019-04-16T07:54:39.824Z,18.55
2019-04-16T07:57:07.180Z,19.27
2019-04-16T07:59:34.313Z,18.73
2019-04-16T08:02:02.605Z,19.37
2019-04-16T08:04:35.387Z,19.98
2019-04-16T08:06:59.003Z,19.73
2019-04-16T08:09:29.942Z,20.02
2019-04-16T08:11:56.060Z,20.43
2019-04-16T08:14:23.369Z,19.82
2019-04-16T08:16:50.424Z,21.73
2019-04-16T08:19:17.784Z,20.68
2019-04-16T08:21:45.132Z,20.25
2019-04-16T08:24:12.510Z,20.90
2019-04-16T08:26:41.649Z,20.72
2019-04-16T08:29:08.655Z,19.42
2019-04-16T08:31:36.009Z,20.40
2019-04-16T08:34:03.071Z,20.08
2019-04-16T08:36:30.115Z,21.30
2019-04-16T08:38:57.720Z,21.55
2019-04-16T08:41:25.101Z,19.90
2019-04-16T08:43:52.480Z,20.70
2019-04-16T08:46:19.806Z,21.25
2019-04-16T08:48:49.324Z,20.90
2019-04-16T08:51:29.376Z,20.08
2019-04-16T08:53:46.712Z,20.40
2019-04-16T08:56:13.970Z,19.70
2019-04-16T08:58:41.278Z,20.68
2019-04-16T09:01:08.571Z,22.87
2019-04-16T09:03:35.904Z,20.57
2019-04-16T09:06:04.307Z,20.32
2019-04-16T09:08:32.071Z,18.70
2019-04-16T09:11:00.246Z,20.90
2019-04-16T09:13:29.232Z,19.37
2019-04-16T09:15:56.593Z,19.48
2019-04-16T09:18:23.657Z,20.00
2019-04-16T09:20:50.699Z,20.60
2019-04-16T09:23:18.021Z,20.35
2019-04-16T09:25:46.551Z,21.10
2019-04-16T09:28:25.282Z,20.00
2019-04-16T09:30:42.801Z,20.37
2019-04-16T09:33:09.866Z,19.98
2019-04-16T09:35:37.277Z,20.27
2019-04-16T09:38:05.755Z,20.25
2019-04-16T09:40:33.106Z,19.35
2019-04-16T09:43:00.332Z,19.82
2019-04-16T09:45:27.403Z,19.23
2019-04-16T09:47:54.449Z,20.15
2019-04-16T09:50:21.795Z,19.80
2019-04-16T09:52:49.156Z,19.65
2019-04-16T09:55:18.874Z,18.80
2019-04-16T09:57:45.604Z,20.77
2019-04-16T10:00:13.014Z,19.87
2019-04-16T10:02:40.519Z,20.35
2019-04-16T10:05:07.896Z,20.23
2019-04-16T10:07:39.815Z,20.40
2019-04-16T10:10:04.019Z,19.32
2019-04-16T10:12:31.391Z,20.30
2019-04-16T10:14:59.516Z,18.48
2019-04-16T10:17:26.916Z,20.50
2019-04-16T10:19:54.297Z,19.30
2019-04-16T10:22:21.632Z,18.95
2019-04-16T10:24:48.701Z,19.98
2019-04-16T10:27:15.759Z,19.15
2019-04-16T10:29:43.082Z,20.20
2019-04-16T10:32:10.174Z,19.07
2019-04-16T10:34:37.258Z,19.65
2019-04-16T10:37:04.632Z,18.07
2019-04-16T10:39:31.760Z,18.05
2019-04-16T10:41:59.130Z,18.42
2019-04-16T10:44:26.518Z,17.75
2019-04-16T10:46:53.542Z,16.80
2019-04-16T10:49:20.617Z,18.07
2019-04-16T10:51:47.652Z,18.02
2019-04-16T10:54:15.081Z,16.90
2019-04-16T10:56:42.538Z,16.55
2019-04-16T10:59:09.587Z,18.48
2019-04-16T11:01:36.675Z,18.48
2019-04-16T11:04:04.854Z,17.80
2019-04-16T11:06:32.711Z,18.37
2019-04-16T11:08:59.733Z,18.52
2019-04-16T11:11:26.887Z,18.37
2019-04-16T11:14:00.015Z,18.02
2019-04-16T11:16:22.925Z,18.65
2019-04-16T11:18:50.265Z,17.32
2019-04-16T11:21:17.419Z,17.25
2019-04-16T11:23:44.830Z,15.85
2019-04-16T11:26:12.249Z,16.67
2019-04-16T11:28:39.301Z,16.87
2019-04-16T11:31:06.389Z,17.82
2019-04-16T11:33:33.414Z,15.85
2019-04-16T11:36:00.860Z,16.90
2019-04-16T11:38:28.211Z,16.85
2019-04-16T11:40:55.570Z,16.67
2019-04-16T11:43:22.928Z,16.30
2019-04-16T11:45:50.260Z,16.20
2019-04-16T11:48:17.607Z,13.48
2019-04-16T11:50:46.011Z,17.45
2019-04-16T11:53:13.034Z,17.05
2019-04-16T11:55:40.341Z,16.50
2019-04-16T11:58:07.369Z,15.03
2019-04-16T12:00:34.705Z,14.18
2019-04-16T12:03:01.836Z,14.30
2019-04-16T12:05:29.214Z,14.95
2019-04-16T12:07:56.281Z,16.20
2019-04-16T12:10:23.340Z,15.38
2019-04-16T12:12:50.659Z,15.13
2019-04-16T12:15:18.021Z,13.72
2019-04-16T12:17:45.116Z,15.28
2019-04-16T12:20:12.304Z,14.00
2019-04-16T12:22:39.755Z,14.50
2019-04-16T12:25:07.124Z,14.95
2019-04-16T12:27:34.173Z,14.15
2019-04-16T12:30:01.865Z,13.20
2019-04-16T12:32:29.709Z,13.70
2019-04-16T12:34:56.759Z,14.43
2019-04-16T12:37:24.092Z,12.78
2019-04-16T12:39:51.468Z,15.08
2019-04-16T12:45:09.157Z,15.23
2019-04-16T12:47:36.924Z,13.88
2019-04-16T12:50:03.975Z,14.73
2019-04-16T12:52:31.443Z,14.83
2019-04-16T12:54:59.702Z,12.70
2019-04-16T12:57:26.864Z,14.13
2019-04-16T12:59:54.987Z,12.88
2019-04-16T13:02:23.042Z,12.68
2019-04-16T13:04:50.542Z,12.95
2019-04-16T13:07:17.579Z,13.93
2019-04-16T13:09:44.916Z,14.25
2019-04-16T13:12:11.986Z,13.90
2019-04-16T13:14:39.307Z,13.18
2019-04-16T13:17:06.369Z,16.15
2019-04-16T13:19:33.418Z,35.20
2019-04-16T13:22:01.024Z,12.00
2019-04-16T13:24:28.544Z,10.72
2019-04-16T13:26:55.876Z,11.20
2019-04-16T13:29:29.021Z,12.00
2019-04-16T13:31:51.973Z,11.88
2019-04-16T13:34:19.469Z,12.90
2019-04-16T13:36:51.415Z,13.53
2019-04-16T13:39:17.683Z,12.45
2019-04-16T13:41:45.021Z,11.15
2019-04-16T13:44:12.075Z,11.40
2019-04-16T13:46:39.427Z,13.03
2019-04-16T13:49:06.850Z,12.80
2019-04-16T13:51:34.124Z,11.75
2019-04-16T13:54:02.020Z,10.40
2019-04-16T13:56:29.316Z,10.48
2019-04-16T13:58:59.033Z,10.68
2019-04-16T14:01:25.816Z,10.88
2019-04-16T14:03:56.097Z,10.15
2019-04-16T14:06:21.916Z,10.30
2019-04-16T14:08:49.082Z,11.53
2019-04-16T14:11:19.365Z,10.18
2019-04-16T14:13:46.441Z,10.38
2019-04-16T14:16:14.297Z,10.35
2019-04-16T14:18:41.370Z,10.03
2019-04-16T14:21:08.744Z,11.18
2019-04-16T14:23:35.807Z,11.28
2019-04-16T14:26:02.857Z,10.35
2019-04-16T14:28:34.264Z,9.68
2019-04-16T14:30:58.941Z,9.60
2019-04-16T14:33:26.339Z,9.68
2019-04-16T14:35:53.712Z,8.95
2019-04-16T14:38:20.757Z,8.38
2019-04-16T14:40:48.118Z,12.05
2019-04-16T14:43:15.171Z,13.70
2019-04-16T14:45:56.765Z,13.70
2019-04-16T14:48:11.249Z,14.85
2019-04-16T14:50:38.645Z,16.70
2019-04-16T14:53:06.006Z,16.17
2019-04-16T14:55:33.357Z,17.20
2019-04-16T14:58:00.406Z,17.00
2019-04-16T15:00:27.777Z,16.57
2019-04-16T15:02:55.117Z,16.55
2019-04-16T15:05:22.469Z,16.27
2019-04-16T15:07:49.778Z,17.52
2019-04-16T15:10:17.185Z,17.23
2019-04-16T15:12:44.233Z,17.90
2019-04-16T15:15:11.722Z,16.45
2019-04-16T15:17:40.575Z,17.02
2019-04-16T15:20:07.642Z,15.68
2019-04-16T15:22:34.688Z,16.80
2019-04-16T15:25:01.759Z,16.37
2019-04-16T15:27:31.627Z,16.10
2019-04-16T15:29:57.850Z,16.02
2019-04-16T15:32:25.527Z,16.77
2019-04-16T15:34:52.900Z,17.30
2019-04-16T15:37:22.752Z,19.32
2019-04-16T15:39:49.330Z,17.70
2019-04-16T15:42:17.742Z,18.12
2019-04-16T15:44:45.801Z,17.80
2019-04-16T15:47:14.036Z,18.15
2019-04-16T15:49:41.946Z,17.98
2019-04-16T15:52:10.385Z,20.23
2019-04-16T15:54:37.986Z,19.73
2019-04-16T15:57:08.017Z,18.50
2019-04-16T15:59:35.358Z,19.57
2019-04-16T16:02:02.665Z,17.65
2019-04-16T16:04:31.074Z,18.40
2019-04-16T16:06:58.429Z,17.98
2019-04-16T16:09:25.785Z,18.60
2019-04-16T16:11:52.851Z,18.70
2019-04-16T16:14:19.895Z,18.23
2019-04-16T16:16:47.757Z,17.23
2019-04-16T16:19:16.065Z,18.10
2019-04-16T16:21:43.482Z,17.07
2019-04-16T16:24:11.862Z,16.55
2019-04-16T16:26:39.218Z,16.57
2019-04-16T16:29:06.266Z,16.37
2019-04-16T16:31:35.587Z,15.58
2019-04-16T16:34:02.061Z,16.25
2019-04-16T16:36:29.190Z,20.30
2019-04-16T16:38:56.502Z,18.98
2019-04-16T16:41:23.566Z,17.75
2019-04-16T16:43:50.612Z,16.73
2019-04-16T16:46:17.956Z,14.28
2019-04-16T16:48:45.310Z,15.25
2019-04-16T16:51:14.834Z,14.83
2019-04-16T16:53:41.454Z,14.55
2019-04-16T16:56:08.816Z,14.07
2019-04-16T16:58:35.856Z,15.68
2019-04-16T17:01:03.248Z,13.68
2019-04-16T17:03:30.298Z,13.22
2019-04-16T17:05:57.835Z,14.07
2019-04-16T17:08:27.069Z,12.63
2019-04-16T17:10:54.066Z,10.82
2019-04-16T17:13:21.328Z,10.20
2019-04-16T17:15:48.791Z,9.10
2019-04-16T17:18:15.857Z,10.32
2019-04-16T17:20:43.178Z,10.28
2019-04-16T17:23:16.502Z,9.75
2019-04-16T17:25:40.565Z,9.10
2019-04-16T17:28:07.867Z,8.90
2019-04-16T17:30:35.158Z,9.33
2019-04-16T17:33:02.621Z,9.18
2019-04-16T17:35:29.993Z,9.13
2019-04-16T17:38:01.536Z,8.85
2019-04-16T17:40:26.112Z,9.10
2019-04-16T17:42:53.326Z,8.95
2019-04-16T17:45:20.823Z,8.60
2019-04-16T17:47:48.194Z,9.53
2019-04-16T17:50:15.552Z,9.10
2019-04-16T17:52:42.892Z,8.70
2019-04-16T17:55:10.187Z,8.68
2019-04-16T17:57:37.240Z,9.83
2019-04-16T18:00:05.653Z,9.75
2019-04-16T18:02:33.640Z,9.25
2019-04-16T18:05:00.685Z,9.83
2019-04-16T18:07:29.169Z,9.70
2019-04-16T18:10:00.416Z,9.28
2019-04-16T18:12:25.628Z,9.83
2019-04-16T18:14:52.998Z,9.83
2019-04-16T18:17:20.092Z,9.80
2019-04-16T18:19:48.509Z,10.23
2019-04-16T18:22:15.997Z,10.15
2019-04-16T18:24:43.094Z,9.73
2019-04-16T18:27:10.474Z,9.45
2019-04-16T18:29:37.825Z,10.70
2019-04-16T18:32:05.018Z,10.20
2019-04-16T18:34:33.191Z,10.08
2019-04-16T18:37:00.231Z,10.65
2019-04-16T18:39:27.613Z,10.18
2019-04-16T18:41:54.909Z,9.68
2019-04-16T18:44:22.047Z,10.85
2019-04-16T18:46:49.426Z,9.53
2019-04-16T18:49:17.404Z,9.48
2019-04-16T18:51:45.558Z,9.45
2019-04-16T18:54:15.020Z,9.25
2019-04-16T18:56:41.942Z,9.50
2019-04-16T18:59:09.237Z,8.95
2019-04-16T19:01:36.280Z,8.28
2019-04-16T19:04:03.689Z,7.50
2019-04-16T19:06:32.065Z,8.30
2019-04-16T19:08:59.124Z,9.25
2019-04-16T19:11:26.169Z,9.18
2019-04-16T19:13:53.701Z,8.78
2019-04-16T19:16:21.165Z,7.53
2019-04-16T19:18:48.280Z,8.18
2019-04-16T19:21:15.318Z,7.78
2019-04-16T19:23:43.529Z,7.33
2019-04-16T19:26:10.884Z,7.33
2019-04-16T19:28:39.627Z,7.65
2019-04-16T19:31:07.335Z,7.83
2019-04-16T19:33:38.102Z,9.53
2019-04-16T19:36:03.143Z,8.75
2019-04-16T19:38:30.626Z,9.58
2019-04-16T19:40:58.007Z,8.93
2019-04-16T19:43:28.024Z,8.88
2019-04-16T19:45:53.794Z,9.48
2019-04-16T19:48:34.740Z,9.75
2019-04-16T19:50:49.928Z,9.55
2019-04-16T19:53:16.973Z,10.43
2019-04-16T19:55:45.814Z,9.70
2019-04-16T19:58:12.779Z,10.18
2019-04-16T20:00:40.207Z,9.83
2019-04-16T20:03:07.247Z,9.25
2019-04-16T20:05:34.828Z,9.33
2019-04-16T20:08:02.468Z,8.63
2019-04-16T20:10:29.537Z,8.88
2019-04-16T20:12:59.200Z,9.60
2019-04-16T20:15:25.730Z,9.33
2019-04-16T20:17:53.201Z,9.43
2019-04-16T20:20:20.308Z,9.20
2019-04-16T20:22:47.651Z,8.90
2019-04-16T20:25:14.715Z,8.63
2019-04-16T20:27:41.739Z,8.68
2019-04-16T20:30:09.096Z,7.90
2019-04-16T20:32:36.538Z,8.28
2019-04-16T20:35:03.893Z,8.60
2019-04-16T20:37:38.418Z,9.00
2019-04-16T20:40:05.456Z,8.25
2019-04-16T20:42:32.594Z,8.58
2019-04-16T20:44:59.965Z,7.37
2019-04-16T20:47:27.103Z,8.03
2019-04-16T20:49:54.583Z,8.68
2019-04-16T20:52:21.936Z,10.80
2019-04-16T20:54:49.285Z,9.78
2019-04-16T20:57:16.346Z,10.40
2019-04-16T20:59:43.626Z,9.80
2019-04-16T21:02:10.940Z,10.60
2019-04-16T21:04:38.296Z,10.93
2019-04-16T21:07:05.653Z,11.12
2019-04-16T21:09:32.700Z,12.47
2019-04-16T21:11:59.760Z,12.45
2019-04-16T21:14:27.873Z,12.82
2019-04-16T21:16:54.933Z,12.43
2019-04-16T21:19:23.651Z,13.15
2019-04-16T21:21:55.081Z,12.55
2019-04-16T21:24:19.923Z,11.65
2019-04-16T21:26:50.990Z,11.33
2019-04-16T21:29:15.726Z,11.97
2019-04-16T21:31:43.150Z,12.00
2019-04-16T21:34:10.435Z,11.28
2019-04-16T21:36:37.973Z,11.97
2019-04-16T21:39:05.471Z,13.08
2019-04-16T21:41:34.483Z,11.35
2019-04-16T21:44:02.146Z,12.63
2019-04-16T21:46:29.582Z,12.20
2019-04-16T21:48:59.841Z,12.53
2019-04-16T21:51:25.685Z,11.60
2019-04-16T21:53:52.983Z,11.83
2019-04-16T21:56:20.335Z,13.65
2019-04-16T21:58:50.193Z,12.58
2019-04-16T22:01:17.497Z,13.30
2019-04-16T22:03:44.876Z,13.93
2019-04-16T22:06:11.927Z,13.95
2019-04-16T22:08:39.306Z,14.98
2019-04-16T22:11:08.583Z,14.30
2019-04-16T22:13:35.818Z,14.45
2019-04-16T22:16:03.167Z,15.05
2019-04-16T22:18:30.521Z,15.63
2019-04-16T22:20:57.877Z,15.53
2019-04-16T22:23:24.938Z,15.28
2019-04-16T22:25:52.281Z,16.20
2019-04-16T22:28:19.639Z,15.43
2019-04-16T22:30:51.230Z,15.55
2019-04-16T22:33:16.086Z,14.85
2019-04-16T22:35:43.441Z,14.68
2019-04-16T22:38:13.697Z,14.65
2019-04-16T22:40:39.239Z,14.23
2019-04-16T22:43:08.494Z,15.25
2019-04-16T22:45:36.700Z,15.32
2019-04-16T22:48:04.004Z,15.72
2019-04-16T22:50:31.049Z,16.85
2019-04-16T22:52:58.347Z,17.30
2019-04-16T22:55:25.801Z,16.35
2019-04-16T22:57:54.026Z,16.32
2019-04-16T23:00:21.073Z,16.97
2019-04-16T23:02:48.940Z,15.10
2019-04-16T23:05:16.353Z,15.63
2019-04-16T23:07:43.391Z,15.95
2019-04-16T23:10:10.528Z,15.83
2019-04-16T23:12:37.836Z,15.98
2019-04-16T23:15:05.224Z,16.93
2019-04-16T23:17:32.498Z,14.68
2019-04-16T23:19:59.554Z,16.57
2019-04-16T23:22:26.589Z,15.98
2019-04-16T23:24:55.338Z,14.68
2019-04-16T23:27:22.706Z,15.75
2019-04-16T23:29:50.066Z,15.80
2019-04-16T23:32:17.421Z,15.70
2019-04-16T23:34:44.724Z,15.40
2019-04-16T23:37:12.419Z,15.23
2019-04-16T23:39:39.827Z,15.98
2019-04-16T23:42:07.919Z,14.68
2019-04-16T23:44:35.339Z,15.10
2019-04-16T23:47:02.385Z,14.75
2019-04-16T23:49:29.727Z,14.90
2019-04-16T23:52:01.784Z,15.40
2019-04-16T23:54:25.848Z,14.78
2019-04-16T23:56:53.892Z,15.32
2019-04-16T23:59:21.175Z,16.65
